Time;durP1;ratioP1;P1;durP2;ratioP2;P2;SDS_P1;SDS_P2;PMS_P1;PMS_P2;Temp;Humidity;BMP_temperature;BMP_pressure;BME280_temperature;BME280_humidity;BME280_pressure;Samples;Min_cycle;Max_cycle;Signal;HPM_P1;HPM_P2
2022/10/21 00:00:00;;;;;;;22.13;12.10;;;;;;;5.78;90.53;100911.73;3465378;83;98306;-88
2022/10/21 00:05:00;;;;;;;30.30;12.20;;;;;;;5.72;90.75;100906.23;3473250;83;26299;-90
2022/10/21 00:10:03;;;;;;;24.60;12.30;;;;;;;5.66;90.88;100882.41;3462111;83;98883;-89
2022/10/21 00:15:07;;;;;;;21.10;10.70;;;;;;;5.60;91.00;100872.83;3461899;83;26340;-88
2022/10/21 00:20:10;;;;;;;21.33;11.83;;;;;;;5.55;91.15;100874.94;3478719;83;98975;-89
2022/10/21 00:25:11;;;;;;;21.20;11.22;;;;;;;5.47;91.19;100863.53;3455026;83;30959;-88
2022/10/21 00:30:12;;;;;;;24.73;11.27;;;;;;;5.42;91.38;100862.36;3457389;83;98959;-87
2022/10/21 00:35:13;;;;;;;25.20;11.53;;;;;;;5.38;91.53;100857.33;3448688;83;25962;-88
2022/10/21 00:40:14;;;;;;;22.77;11.77;;;;;;;5.33;91.87;100850.14;3469939;83;98779;-88
2022/10/21 00:45:20;;;;;;;20.93;11.63;;;;;;;5.28;91.79;100840.78;3445398;83;26427;-89
2022/10/21 00:50:47;;;;;;;26.30;13.50;;;;;;;5.24;91.93;100826.78;3441693;83;98765;-88
2022/10/21 00:55:52;;;;;;;21.35;11.18;;;;;;;5.20;92.15;100838.92;3443876;84;27537;-89
2022/10/21 01:00:57;;;;;;;23.17;11.90;;;;;;;5.16;92.22;100833.08;3448536;82;98843;-89
2022/10/21 01:06:02;;;;;;;29.05;12.53;;;;;;;5.14;92.38;100838.86;3449868;84;31175;-89
2022/10/21 01:11:08;;;;;;;24.02;12.98;;;;;;;5.13;92.33;100825.56;3449587;83;98801;-88
2022/10/21 01:16:23;;;;;;;23.43;13.57;;;;;;;5.07;92.60;100809.95;3444052;84;103181;-90
2022/10/21 01:21:35;;;;;;;28.00;15.63;;;;;;;5.05;92.76;100805.39;3442246;84;29220;-89
2022/10/21 01:26:47;;;;;;;25.23;13.00;;;;;;;5.03;92.93;100804.13;3435433;83;98834;-89
2022/10/21 01:32:10;;;;;;;27.73;15.17;;;;;;;5.01;93.02;100799.00;3453846;84;27711;-86
2022/10/21 01:37:24;;;;;;;23.57;13.70;;;;;;;4.97;93.41;100810.33;3443311;83;98903;-89
2022/10/21 01:42:37;;;;;;;26.27;14.20;;;;;;;4.94;93.39;100791.09;3447704;84;28725;-89
2022/10/21 01:47:45;;;;;;;26.75;14.28;;;;;;;4.92;93.43;100783.23;3484631;83;98664;-88
2022/10/21 01:52:50;;;;;;;27.50;14.80;;;;;;;4.91;93.69;100772.10;3470671;83;28319;-90
2022/10/21 01:58:00;;;;;;;26.07;14.03;;;;;;;4.90;93.95;100768.33;3484422;83;98638;-92
2022/10/21 02:03:08;;;;;;;31.57;14.87;;;;;;;4.88;93.98;100761.88;3485063;83;29414;-89
2022/10/21 02:08:09;;;;;;;27.23;14.47;;;;;;;4.91;94.00;100759.05;3463452;83;99017;-88
2022/10/21 02:13:14;;;;;;;29.97;15.17;;;;;;;4.93;94.23;100767.69;3464790;83;25894;-89
2022/10/21 02:18:24;;;;;;;26.53;14.40;;;;;;;4.91;94.10;100769.37;3488540;83;98934;-89
2022/10/21 02:23:36;;;;;;;29.70;15.83;;;;;;;4.92;94.22;100773.70;3472520;83;28740;-89
2022/10/21 02:28:38;;;;;;;27.82;15.18;;;;;;;4.92;94.22;100773.70;3457190;83;98982;-88
2022/10/21 02:34:00;;;;;;;26.55;14.53;;;;;;;4.92;94.23;100770.97;3489402;83;33087;-88
2022/10/21 02:39:21;;;;;;;27.20;14.93;;;;;;;4.92;94.29;100760.64;3481800;83;98659;-89
2022/10/21 02:44:22;;;;;;;30.47;16.80;;;;;;;4.92;94.47;100758.70;3444406;83;28458;-88
2022/10/21 02:49:23;;;;;;;29.90;16.47;;;;;;;4.91;94.50;100744.05;3474760;83;98858;-88
2022/10/21 02:54:24;;;;;;;27.63;15.50;;;;;;;4.90;94.64;100741.87;3480379;83;26006;-89
2022/10/21 02:59:25;;;;;;;30.73;15.43;;;;;;;4.91;94.71;100733.14;3442341;83;98939;-88
2022/10/21 03:04:25;;;;;;;27.17;16.80;;;;;;;4.93;94.95;100733.59;3454313;83;25785;-88
2022/10/21 03:09:26;;;;;;;32.73;16.77;;;;;;;4.95;94.86;100736.23;3472588;83;98746;-88
2022/10/21 03:14:27;;;;;;;26.93;15.97;;;;;;;4.97;94.99;100738.63;3476741;83;25870;-88
2022/10/21 03:19:27;;;;;;;27.98;15.60;;;;;;;4.97;94.87;100729.08;3477961;83;98383;-87
2022/10/21 03:24:28;;;;;;;26.40;15.00;;;;;;;5.02;94.78;100726.16;3482384;83;33281;-90
2022/10/21 03:29:29;;;;;;;29.23;15.18;;;;;;;5.05;94.74;100730.94;3475257;83;98718;-89
2022/10/21 03:34:30;;;;;;;31.90;16.40;;;;;;;5.06;94.71;100724.34;3461875;83;33235;-89
2022/10/21 03:39:31;;;;;;;31.03;16.67;;;;;;;5.06;94.75;100712.06;3479756;83;98673;-89
2022/10/21 03:44:32;;;;;;;30.77;16.13;;;;;;;5.04;94.84;100698.78;3488711;83;33285;-86
2022/10/21 03:49:33;;;;;;;30.27;16.20;;;;;;;5.04;94.95;100696.61;3447748;82;99027;-86
2022/10/21 03:54:34;;;;;;;34.63;17.53;;;;;;;5.06;94.90;100687.52;3464028;84;33752;-88
2022/10/21 03:59:35;;;;;;;29.93;16.83;;;;;;;5.03;94.97;100687.62;3433370;84;98611;-89
2022/10/21 04:04:36;;;;;;;28.20;15.24;;;;;;;5.02;95.09;100679.20;3455063;84;33737;-88
2022/10/21 04:09:37;;;;;;;31.80;16.48;;;;;;;5.01;95.09;100668.63;3430925;84;98555;-88
2022/10/21 04:14:38;;;;;;;25.07;14.80;;;;;;;5.00;95.16;100662.39;3462830;84;31691;-87
2022/10/21 04:19:39;;;;;;;31.37;16.95;;;;;;;5.02;95.28;100663.42;3447205;84;98549;-88
2022/10/21 04:24:40;;;;;;;30.87;16.50;;;;;;;5.00;95.32;100647.39;3446975;84;31635;-88
2022/10/21 04:29:40;;;;;;;30.88;17.87;;;;;;;5.02;95.43;100632.84;3456190;83;98544;-89
2022/10/21 04:34:55;;;;;;;;;;;;;;;;;;;;;
2022/10/21 04:39:48;;;;;;;29.35;16.25;;;;;;;5.03;95.68;100609.10;3409395;84;98571;-89
2022/10/21 04:44:49;;;;;;;33.43;18.33;;;;;;;5.06;95.77;100602.95;3454679;84;31661;-90
2022/10/21 04:49:49;;;;;;;33.33;17.63;;;;;;;5.10;95.86;100603.34;3437717;83;98727;-89
2022/10/21 04:54:50;;;;;;;34.20;19.87;;;;;;;5.15;95.81;100600.39;3434371;85;32194;-87
2022/10/21 04:59:51;;;;;;;34.03;17.23;;;;;;;5.19;96.00;100614.16;3445498;83;98384;-89
2022/10/21 05:04:52;;;;;;;34.40;18.73;;;;;;;5.22;95.95;100607.45;3450140;84;32182;-90
2022/10/21 05:09:52;;;;;;;36.83;19.50;;;;;;;5.26;96.01;100601.56;3441840;85;98460;-91
2022/10/21 05:14:53;;;;;;;34.60;18.93;;;;;;;5.29;95.95;100583.72;3446050;84;25982;-88
2022/10/21 05:19:54;;;;;;;33.27;18.10;;;;;;;5.31;96.12;100573.26;3433951;84;98350;-88
2022/10/21 05:24:55;;;;;;;33.57;18.93;;;;;;;5.34;96.23;100553.48;3438054;85;34807;-89
2022/10/21 05:29:57;;;;;;;37.93;20.37;;;;;;;5.37;96.40;100548.70;3441290;83;98588;-91
2022/10/21 05:34:58;;;;;;;35.67;17.97;;;;;;;5.41;96.50;100534.61;3444752;84;34983;-88
2022/10/21 05:39:58;;;;;;;34.93;18.00;;;;;;;5.44;96.63;100522.45;3423942;84;98491;-89
2022/10/21 05:44:59;;;;;;;34.33;18.27;;;;;;;5.49;96.66;100503.12;3444395;84;35550;-90
2022/10/21 05:50:00;;;;;;;34.47;18.57;;;;;;;5.53;96.65;100491.75;3468337;83;98913;-92
2022/10/21 05:55:02;;;;;;;34.75;17.95;;;;;;;5.59;96.64;100495.84;3480341;83;34842;-95
2022/10/21 06:00:05;;;;;;;34.33;17.80;;;;;;;5.62;96.68;100491.05;3485802;83;98812;-94
2022/10/21 06:05:06;;;;;;;33.17;18.97;;;;;;;5.67;96.70;100470.34;3491183;83;34971;-93
2022/10/21 06:10:10;;;;;;;33.07;18.50;;;;;;;5.70;96.66;100447.82;3490955;83;98436;-94
2022/10/21 06:15:11;;;;;;;36.53;19.33;;;;;;;5.73;96.59;100450.44;3485293;83;26965;-92
2022/10/21 06:20:12;;;;;;;33.93;19.00;;;;;;;5.74;96.72;100443.83;3486077;83;98780;-92
2022/10/21 06:25:13;;;;;;;32.57;17.93;;;;;;;5.77;96.72;100464.97;3489105;83;26050;-92
2022/10/21 06:30:14;;;;;;;36.13;19.33;;;;;;;5.81;96.68;100456.36;3464276;83;98544;-93
2022/10/21 06:35:15;;;;;;;34.73;18.50;;;;;;;5.84;96.87;100443.39;3488711;83;34908;-93
2022/10/21 06:40:16;;;;;;;34.90;18.60;;;;;;;5.88;97.03;100440.17;3481407;83;98607;-92
2022/10/21 06:45:17;;;;;;;34.47;20.10;;;;;;;5.94;97.03;100427.89;3483185;83;35215;-92
2022/10/21 06:50:18;;;;;;;35.60;18.87;;;;;;;6.00;97.09;100431.97;3478597;83;98906;-93
2022/10/21 06:55:18;;;;;;;39.92;20.85;;;;;;;6.06;97.04;100440.14;3476863;83;34893;-95
2022/10/21 07:00:19;;;;;;;37.80;20.20;;;;;;;6.13;97.09;100464.37;3482608;83;98722;-96
2022/10/21 07:05:20;;;;;;;37.30;19.00;;;;;;;6.23;97.04;100497.23;3492074;83;26407;-95
2022/10/21 07:10:21;;;;;;;42.53;21.47;;;;;;;6.31;96.87;100516.23;3485289;83;98781;-88
2022/10/21 07:15:22;;;;;;;37.03;20.40;;;;;;;6.40;96.92;100521.00;3480559;83;32445;-92
2022/10/21 07:20:22;;;;;;;37.50;20.63;;;;;;;6.43;96.85;100517.55;3485765;83;98359;-87
2022/10/21 07:25:23;;;;;;;34.53;19.43;;;;;;;6.58;96.76;100512.72;3491020;83;32444;-92
2022/10/21 07:30:24;;;;;;;36.10;20.17;;;;;;;6.67;96.66;100503.00;3481768;83;98900;-93
2022/10/21 07:35:25;;;;;;;36.77;21.65;;;;;;;6.77;96.57;100521.64;3483611;83;32592;-92
2022/10/21 07:40:27;;;;;;;53.48;25.57;;;;;;;6.86;96.45;100509.95;3481216;83;98755;-92
2022/10/21 07:45:28;;;;;;;44.73;25.25;;;;;;;6.94;96.36;100513.12;3482843;83;30678;-89
2022/10/21 07:50:28;;;;;;;42.90;24.37;;;;;;;7.02;96.28;100505.30;3478670;83;99512;-95
2022/10/21 07:55:30;;;;;;;38.63;21.53;;;;;;;7.09;96.27;100503.55;3474830;83;25929;-96
2022/10/21 08:00:30;;;;;;;39.00;21.27;;;;;;;7.15;96.20;100493.16;3486251;83;98352;-93
2022/10/21 08:05:31;;;;;;;37.30;22.47;;;;;;;7.23;96.12;100482.59;3465669;83;25870;-92
2022/10/21 08:10:36;;;;;;;34.67;20.70;;;;;;;7.30;96.08;100483.56;3481095;83;98418;-91
2022/10/21 08:15:43;;;;;;;34.08;18.73;;;;;;;7.39;96.02;100470.50;3479258;83;32366;-93
2022/10/21 08:20:45;;;;;;;32.50;19.23;;;;;;;7.48;96.06;100467.58;3471530;83;98685;-93
2022/10/21 08:25:53;;;;;;;31.23;18.30;;;;;;;7.58;96.04;100470.55;3487397;83;32205;-96
2022/10/21 08:31:07;;;;;;;31.80;19.42;;;;;;;7.67;96.00;100480.75;3477408;83;98987;-92
2022/10/21 08:36:17;;;;;;;34.08;18.80;;;;;;;7.81;95.97;100469.33;3483238;83;98847;-93
2022/10/21 08:41:33;;;;;;;30.95;18.87;;;;;;;7.92;95.75;100458.80;3465536;83;32416;-92
2022/10/21 08:46:57;;;;;;;40.85;21.77;;;;;;;8.03;95.79;100472.19;3466797;83;98850;-91
2022/10/21 08:52:06;;;;;;;29.20;17.70;;;;;;;8.19;95.69;100477.02;3443023;84;33047;-92
2022/10/21 08:57:11;;;;;;;31.37;18.92;;;;;;;8.31;95.31;100481.05;3443788;84;98791;-90
2022/10/21 09:02:23;;;;;;;28.98;17.15;;;;;;;8.44;95.53;100472.88;3450883;83;33032;-92
2022/10/21 09:07:38;;;;;;;29.90;18.35;;;;;;;8.62;95.35;100462.27;3451654;84;98574;-89
2022/10/21 09:12:45;;;;;;;27.37;17.75;;;;;;;8.77;94.93;100444.33;3451965;83;33125;-89
2022/10/21 09:18:27;;;;;;;29.70;17.73;;;;;;;8.93;95.09;100441.46;3450661;84;98706;-90
2022/10/21 09:23:50;;;;;;;26.75;16.93;;;;;;;9.15;94.70;100427.75;3404414;84;31619;-90
2022/10/21 09:28:51;;;;;;;33.20;17.82;;;;;;;9.39;94.64;100420.47;3442891;83;99168;-93
2022/10/21 09:33:58;;;;;;;28.13;18.07;;;;;;;9.65;94.36;100406.74;3458814;84;26627;-93
2022/10/21 09:39:17;;;;;;;;;;;;;;;9.87;93.74;100410.59;3454970;83;98737;-92
2022/10/21 09:44:21;;;;;;;40.60;22.00;;;;;;;10.18;93.12;100406.90;3448296;84;32480;-93
2022/10/21 09:49:35;;;;;;;33.18;17.10;;;;;;;10.43;92.86;100425.08;3444411;84;98865;-90
2022/10/21 09:54:39;;;;;;;24.20;14.63;;;;;;;10.60;92.02;100422.52;3457237;84;31950;-90
2022/10/21 09:59:59;;;;;;;27.30;15.93;;;;;;;10.82;91.84;100422.14;3444407;84;99086;-90
2022/10/21 10:04:59;;;;;;;22.52;14.95;;;;;;;11.08;91.72;100418.68;3439671;84;32607;-87
2022/10/21 10:10:04;;;;;;;24.30;15.10;;;;;;;11.31;90.96;100413.75;3455845;84;99030;-92
2022/10/21 10:15:26;;;;;;;26.10;17.17;;;;;;;11.50;90.47;100389.28;3454686;83;29299;-90
2022/10/21 10:20:27;;;;;;;25.72;14.50;;;;;;;11.66;89.97;100385.07;3433700;83;98997;-90
2022/10/21 10:25:32;;;;;;;23.53;14.97;;;;;;;11.96;89.25;100377.94;3451097;84;29717;-92
2022/10/21 10:30:43;;;;;;;22.13;13.95;;;;;;;12.25;88.75;100361.69;3454424;83;98972;-92
2022/10/21 10:35:58;;;;;;;25.08;15.83;;;;;;;12.45;88.07;100356.04;3458344;84;32481;-90
2022/10/21 10:41:16;;;;;;;23.37;13.47;;;;;;;12.66;88.28;100351.37;3454442;84;98611;-91
2022/10/21 10:46:39;;;;;;;22.83;15.40;;;;;;;12.78;87.16;100347.41;3451246;83;98999;-91
2022/10/21 10:51:41;;;;;;;23.85;14.10;;;;;;;12.96;86.86;100342.13;3347411;87;32520;-85
2022/10/21 10:57:02;;;;;;;22.35;15.13;;;;;;;13.09;86.08;100354.34;3333237;86;99323;-84
2022/10/21 11:02:23;;;;;;;29.75;17.92;;;;;;;13.18;85.14;100347.84;3334910;87;33717;-86
2022/10/21 11:07:37;;;;;;;22.30;14.20;;;;;;;13.28;85.05;100357.30;3329127;86;99154;-85
2022/10/21 11:12:38;;;;;;;23.50;14.55;;;;;;;13.38;85.04;100339.34;3342274;87;30547;-84
2022/10/21 11:17:46;;;;;;;22.33;15.40;;;;;;;13.49;84.47;100351.16;3340106;86;99316;-86
2022/10/21 11:23:12;;;;;;;21.35;13.80;;;;;;;13.63;84.51;100332.37;3346587;86;33063;-84
2022/10/21 11:28:28;;;;;;;27.80;15.08;;;;;;;13.79;84.39;100327.18;3343926;85;99224;-84
2022/10/21 11:33:37;;;;;;;23.00;13.48;;;;;;;13.92;83.47;100300.64;3345229;86;32465;-82
2022/10/21 11:39:09;;;;;;;21.25;14.60;;;;;;;14.06;83.87;100297.82;3282330;88;99383;-84
2022/10/21 11:44:35;;;;;;;22.27;14.13;;;;;;;14.16;82.88;100288.64;3350572;87;31865;-84
2022/10/21 11:49:55;;;;;;;23.62;14.47;;;;;;;14.29;83.11;100296.11;3380853;85;99020;-84
2022/10/21 11:55:33;;;;;;;24.02;16.12;;;;;;;14.40;82.41;100278.06;3400795;85;33067;-84
2022/10/21 12:00:43;;;;;;;18.50;12.55;;;;;;;14.46;82.36;100288.89;3381806;85;99048;-84
2022/10/21 12:06:03;;;;;;;20.72;12.93;;;;;;;14.54;82.25;100287.64;3399296;85;32044;-85
2022/10/21 12:11:12;;;;;;;18.73;12.82;;;;;;;14.60;81.81;100279.88;3303910;87;98930;-85
2022/10/21 12:16:21;;;;;;;19.45;12.28;;;;;;;14.59;81.04;100254.77;3394319;84;98952;-85
2022/10/21 12:21:26;;;;;;;20.70;13.72;;;;;;;14.49;80.23;100235.48;3400976;85;32468;-87
2022/10/21 12:26:38;;;;;;;24.63;13.32;;;;;;;14.68;81.14;100256.48;3395347;85;99294;-90
2022/10/21 12:32:12;;;;;;;19.12;12.65;;;;;;;14.82;79.89;100246.66;3398165;85;32539;-86
2022/10/21 12:37:53;;;;;;;25.27;13.75;;;;;;;14.92;79.88;100240.23;3396395;85;99366;-85
2022/10/21 12:43:22;;;;;;;24.98;12.82;;;;;;;14.93;79.30;100220.25;3401597;85;31793;-87
2022/10/21 12:48:37;;;;;;;18.17;12.13;;;;;;;14.91;79.21;100217.08;3358805;84;99612;-84
2022/10/21 12:53:58;;;;;;;18.45;12.73;;;;;;;14.87;78.53;100207.42;3396206;85;33041;-86
2022/10/21 12:59:05;;;;;;;21.45;12.60;;;;;;;14.84;78.36;100224.09;3336541;87;99086;-85
2022/10/21 13:04:34;;;;;;;19.90;12.60;;;;;;;14.75;78.24;100236.23;3403148;85;32474;-87
2022/10/21 13:09:56;;;;;;;19.25;12.43;;;;;;;14.66;77.67;100235.31;3397813;84;99144;-85
2022/10/21 13:15:23;;;;;;;19.70;12.23;;;;;;;14.59;78.16;100239.55;3405860;85;32668;-82
2022/10/21 13:20:37;;;;;;;21.30;13.90;;;;;;;14.58;78.19;100235.20;3400254;85;99015;-85
2022/10/21 13:25:36;;;;;;;21.17;13.43;;;;;;;14.62;78.34;100228.24;3402878;85;30667;-87
2022/10/21 13:30:41;;;;;;;23.80;12.37;;;;;;;14.63;78.08;100226.45;3398889;84;98880;-87
2022/10/21 13:35:56;;;;;;;20.03;12.63;;;;;;;14.66;78.16;100227.01;3401576;85;27418;-86
2022/10/21 13:41:08;;;;;;;19.02;13.40;;;;;;;14.77;78.22;100217.23;3378487;86;98819;-86
2022/10/21 13:46:26;;;;;;;17.85;11.25;;;;;;;14.82;77.85;100228.64;3338447;87;99211;-85
2022/10/21 13:51:32;;;;;;;18.57;11.95;;;;;;;14.81;77.62;100227.08;3404848;85;32148;-85
2022/10/21 13:56:36;;;;;;;20.13;12.07;;;;;;;14.80;77.93;100226.89;3339684;87;99245;-86
2022/10/21 14:01:50;;;;;;;19.77;11.93;;;;;;;14.78;77.71;100234.81;3412338;85;32949;-86
2022/10/21 14:06:59;;;;;;;19.95;11.80;;;;;;;14.75;77.65;100231.48;3388556;84;99139;-87
2022/10/21 14:12:08;;;;;;;23.65;12.78;;;;;;;14.71;77.93;100241.81;3395722;86;32322;-87
2022/10/21 14:17:19;;;;;;;19.32;11.68;;;;;;;14.68;77.96;100247.37;3399383;85;99252;-87
2022/10/21 14:22:25;;;;;;;20.95;11.85;;;;;;;14.61;77.92;100243.30;3407322;85;32517;-85
2022/10/21 14:27:31;;;;;;;19.02;11.57;;;;;;;14.46;78.06;100235.70;3351360;86;99282;-86
2022/10/21 14:32:32;;;;;;;18.20;11.85;;;;;;;14.38;78.29;100223.70;3356414;86;27460;-86
2022/10/21 14:37:55;;;;;;;22.07;12.55;;;;;;;14.30;78.74;100228.50;3341120;86;98975;-86
2022/10/21 14:43:04;;;;;;;21.77;12.65;;;;;;;14.21;79.05;100228.74;3409090;86;32471;-86
2022/10/21 14:48:16;;;;;;;21.97;13.53;;;;;;;14.12;79.31;100233.94;3404064;85;98925;-86
2022/10/21 14:53:21;;;;;;;23.25;15.00;;;;;;;13.99;79.66;100230.04;3413305;85;32468;-86
2022/10/21 14:58:29;;;;;;;24.30;14.58;;;;;;;13.75;80.45;100226.83;3350107;86;99339;-86
2022/10/21 15:03:44;;;;;;;21.57;13.45;;;;;;;13.75;80.45;100226.83;3403127;86;33316;-86
2022/10/21 15:09:12;;;;;;;23.27;13.95;;;;;;;13.61;80.96;100226.87;3398731;84;99294;-86
2022/10/21 15:14:19;;;;;;;20.00;12.60;;;;;;;13.51;81.38;100217.45;3416580;86;32489;-86
2022/10/21 15:19:43;;;;;;;25.33;15.13;;;;;;;13.41;81.80;100215.52;3409264;85;99502;-86
2022/10/21 15:24:45;;;;;;;31.17;16.95;;;;;;;13.31;82.03;100201.74;3351869;87;32574;-86
2022/10/21 15:29:47;;;;;;;26.03;15.43;;;;;;;13.22;82.31;100202.75;3403728;84;98746;-86
2022/10/21 15:34:52;;;;;;;24.25;14.65;;;;;;;13.16;82.56;100204.35;3396281;86;32647;-86
2022/10/21 15:39:53;;;;;;;30.92;15.98;;;;;;;13.08;82.92;100201.43;3345886;87;98832;-87
2022/10/21 15:44:54;;;;;;;36.13;20.17;;;;;;;13.02;83.17;100198.27;3411744;85;29470;-86
2022/10/21 15:49:55;;;;;;;44.73;25.87;;;;;;;12.93;83.41;100199.23;3408107;84;99108;-87
2022/10/21 15:54:55;;;;;;;42.20;25.63;;;;;;;12.87;83.68;100197.30;3413280;85;26404;-86
2022/10/21 15:59:56;;;;;;;40.00;25.13;;;;;;;12.80;83.94;100181.52;3411218;85;99257;-86
2022/10/21 16:04:57;;;;;;;43.57;25.67;;;;;;;12.81;84.06;100193.37;3408770;85;26633;-87
2022/10/21 16:09:58;;;;;;;37.17;23.07;;;;;;;12.75;84.57;100189.44;3420438;84;99226;-88
2022/10/21 16:14:58;;;;;;;40.63;22.27;;;;;;;12.75;84.57;100189.44;3420198;85;26095;-88
2022/10/21 16:19:59;;;;;;;73.50;40.47;;;;;;;12.71;84.64;100190.80;3412477;84;99003;-88
2022/10/21 16:25:00;;;;;;;69.90;38.23;;;;;;;12.66;84.82;100182.94;3406112;85;33236;-88
2022/10/21 16:30:03;;;;;;;83.50;41.75;;;;;;;12.62;85.00;100185.48;3422682;85;99141;-88
2022/10/21 16:35:04;;;;;;;58.47;28.90;;;;;;;12.61;85.24;100185.30;3414828;86;26211;-87
2022/10/21 16:40:22;;;;;;;51.05;23.55;;;;;;;12.57;85.48;100183.92;3402583;85;98957;-88
2022/10/21 16:45:27;;;;;;;149.40;63.60;;;;;;;12.56;85.56;100172.69;3409670;85;26160;-88
2022/10/21 16:50:45;;;;;;;99.47;40.37;;;;;;;12.53;85.66;100170.71;3427412;84;98963;-87
2022/10/21 16:55:46;;;;;;;63.00;26.10;;;;;;;12.53;85.78;100168.56;3455559;84;26531;-87
2022/10/21 17:00:48;;;;;;;49.87;22.07;;;;;;;12.49;85.93;100161.63;3450110;83;99077;-88
2022/10/21 17:05:49;;;;;;;44.67;21.10;;;;;;;12.46;86.12;100159.69;3460618;84;26495;-88
2022/10/21 17:10:50;;;;;;;92.27;40.37;;;;;;;12.41;86.37;100154.56;3445153;84;98646;-88
2022/10/21 17:15:51;;;;;;;64.23;29.53;;;;;;;12.38;86.57;100159.48;3450605;84;33267;-86
2022/10/21 17:20:52;;;;;;;46.80;23.90;;;;;;;12.35;86.83;100157.52;3461474;83;99433;-88
2022/10/21 17:25:54;;;;;;;37.53;20.67;;;;;;;12.32;86.97;100145.11;3458122;84;33304;-88
2022/10/21 17:30:55;;;;;;;36.47;19.50;;;;;;;12.27;87.24;100142.14;3450777;84;99277;-88
2022/10/21 17:35:56;;;;;;;35.53;21.87;;;;;;;12.23;87.50;100130.91;3463735;84;33283;-87
2022/10/21 17:40:57;;;;;;;41.93;23.83;;;;;;;12.21;87.79;100125.02;3448392;84;98906;-87
2022/10/21 17:45:58;;;;;;;89.60;38.80;;;;;;;12.17;87.90;100122.27;3454714;84;33196;-88
2022/10/21 17:51:01;;;;;;;59.77;28.27;;;;;;;12.17;88.00;100123.64;3442615;84;98924;-88
2022/10/21 17:56:05;;;;;;;47.70;22.80;;;;;;;12.19;88.17;100121.84;3409962;86;33367;-87
2022/10/21 18:01:11;;;;;;;37.23;20.10;;;;;;;12.18;88.53;100121.66;3396324;85;26672;-88
2022/10/21 18:06:14;;;;;;;34.67;19.65;;;;;;;12.16;88.61;100121.27;3404004;85;99157;-88
2022/10/21 18:11:18;;;;;;;29.48;17.60;;;;;;;12.16;88.74;100115.14;3398562;86;26206;-88
2022/10/21 18:16:22;;;;;;;37.93;22.97;;;;;;;12.18;88.90;100132.11;3403707;86;99325;-89
2022/10/21 18:21:23;;;;;;;41.13;25.43;;;;;;;12.10;89.30;100113.97;3395712;86;26445;-89
2022/10/21 18:26:28;;;;;;;36.63;22.83;;;;;;;12.23;89.28;100139.99;3406513;84;99286;-88
2022/10/21 18:31:33;;;;;;;38.10;22.97;;;;;;;12.25;89.40;100145.89;3421145;86;25855;-88
2022/10/21 18:36:34;;;;;;;35.13;22.33;;;;;;;12.25;89.40;100145.89;3394550;85;99361;-89
2022/10/21 18:41:37;;;;;;;38.73;22.70;;;;;;;12.26;89.66;100148.84;3354056;87;33677;-87
2022/10/21 18:46:40;;;;;;;31.93;21.70;;;;;;;12.27;89.77;100147.66;3411757;85;98898;-89
2022/10/21 18:51:41;;;;;;;33.87;22.17;;;;;;;12.29;89.87;100148.65;3420518;84;26473;-89
2022/10/21 18:56:43;;;;;;;37.15;21.60;;;;;;;12.29;90.04;100152.78;3407407;84;99045;-87
2022/10/21 19:01:44;;;;;;;35.08;21.48;;;;;;;12.31;90.14;100157.34;3406048;86;26492;-88
2022/10/21 19:06:45;;;;;;;41.70;24.70;;;;;;;12.33;90.67;100154.96;3401498;84;99213;-87
2022/10/21 19:11:47;;;;;;;38.30;24.90;;;;;;;12.34;91.17;100162.85;3397026;86;33255;-89
2022/10/21 19:16:48;;;;;;;48.60;29.43;;;;;;;12.35;91.68;100161.66;3413543;85;99333;-86
2022/10/21 19:21:52;;;;;;;43.67;27.33;;;;;;;12.34;92.08;100159.30;3404655;85;33282;-88
2022/10/21 19:26:56;;;;;;;41.23;24.87;;;;;;;12.32;92.82;100165.81;3396700;85;99294;-88
2022/10/21 19:31:57;;;;;;;38.73;23.73;;;;;;;12.18;93.63;100154.18;3405150;85;26277;-87
2022/10/21 19:36:58;;;;;;;35.93;22.70;;;;;;;12.21;94.28;100163.03;3328887;87;99051;-86
2022/10/21 19:41:59;;;;;;;34.63;21.50;;;;;;;12.20;94.60;100163.42;3382740;86;33792;-88
2022/10/21 19:47:00;;;;;;;36.23;22.70;;;;;;;12.20;94.65;100151.80;3406640;84;99138;-88
2022/10/21 19:52:02;;;;;;;34.43;22.00;;;;;;;12.18;95.00;100159.70;3422753;84;33896;-88
2022/10/21 19:57:02;;;;;;;34.20;23.07;;;;;;;12.17;95.63;100161.47;3443862;84;99325;-89
2022/10/21 20:02:03;;;;;;;33.73;22.10;;;;;;;12.15;95.93;100168.75;3448209;84;34160;-87
2022/10/21 20:07:04;;;;;;;33.35;21.77;;;;;;;12.14;96.42;100170.52;3444826;83;99157;-88
2022/10/21 20:12:05;;;;;;;33.63;21.13;;;;;;;12.12;96.80;100159.09;3455592;84;34519;-89
2022/10/21 20:17:06;;;;;;;31.13;20.40;;;;;;;12.12;97.00;100169.55;3420932;84;100027;-89
2022/10/21 20:22:07;;;;;;;36.28;23.42;;;;;;;12.12;97.43;100166.79;3461505;84;33391;-88
2022/10/21 20:27:08;;;;;;;36.43;23.67;;;;;;;12.12;97.87;100168.75;3440384;84;100103;-89
2022/10/21 20:32:09;;;;;;;37.27;25.10;;;;;;;12.10;98.38;100167.76;3446696;84;32313;-88
2022/10/21 20:37:10;;;;;;;36.23;23.27;;;;;;;12.06;99.12;100164.23;3445252;84;99223;-88
2022/10/21 20:42:11;;;;;;;38.60;24.03;;;;;;;12.06;99.43;100161.47;3444224;84;31640;-89
2022/10/21 20:47:11;;;;;;;33.47;23.67;;;;;;;12.06;99.97;100153.20;3442322;84;99233;-89
2022/10/21 20:52:12;;;;;;;34.27;23.83;;;;;;;12.06;100.00;100156.53;3451925;84;31656;-88
2022/10/21 20:57:13;;;;;;;39.77;24.33;;;;;;;12.04;100.00;100158.30;3437093;84;99586;-88
2022/10/21 21:02:14;;;;;;;43.18;27.50;;;;;;;12.04;100.00;100154.77;3442093;84;31668;-89
2022/10/21 21:07:15;;;;;;;46.87;28.00;;;;;;;12.02;100.00;100148.26;3438833;84;99083;-88
2022/10/21 21:12:15;;;;;;;39.20;26.43;;;;;;;12.01;100.00;100147.27;3447831;84;26526;-89
2022/10/21 21:17:17;;;;;;;42.43;28.47;;;;;;;12.00;100.00;100141.56;3436397;84;98976;-89
2022/10/21 21:22:19;;;;;;;42.83;28.80;;;;;;;11.98;100.00;100141.95;3456725;84;26461;-90
2022/10/21 21:27:20;;;;;;;37.42;25.48;;;;;;;11.99;100.00;100138.61;3448441;84;99320;-91
2022/10/21 21:32:21;;;;;;;37.87;26.23;;;;;;;11.97;100.00;100130.72;3462496;84;26021;-90
2022/10/21 21:37:24;;;;;;;38.17;26.33;;;;;;;11.95;100.00;100127.55;3459890;84;99499;-88
2022/10/21 21:42:24;;;;;;;33.55;24.35;;;;;;;11.94;100.00;100125.20;3467152;84;31969;-91
2022/10/21 21:47:25;;;;;;;28.57;20.53;;;;;;;11.90;100.00;100118.89;3454288;84;99372;-92
2022/10/21 21:52:28;;;;;;;24.03;15.73;;;;;;;11.88;100.00;100116.52;3464679;84;34849;-91
2022/10/21 21:57:29;;;;;;;21.93;14.50;;;;;;;11.89;100.00;100109.81;3464999;83;99293;-94
2022/10/21 22:02:29;;;;;;;22.37;13.43;;;;;;;11.90;100.00;100107.86;3467705;84;25878;-94
2022/10/21 22:07:31;;;;;;;21.73;13.67;;;;;;;11.89;100.00;100101.55;3464087;83;99417;-92
2022/10/21 22:12:32;;;;;;;21.87;14.60;;;;;;;11.90;100.00;100102.34;3477364;84;25952;-91
2022/10/21 22:17:33;;;;;;;22.30;14.57;;;;;;;11.92;100.00;100104.11;3460887;84;99540;-91
2022/10/21 22:22:35;;;;;;;21.90;15.17;;;;;;;11.89;100.00;100101.55;3465461;84;25821;-92
2022/10/21 22:27:37;;;;;;;23.50;16.80;;;;;;;11.91;100.00;100106.09;3456597;84;99596;-91
2022/10/21 22:32:37;;;;;;;25.73;17.63;;;;;;;11.92;100.00;100113.77;3440011;84;26687;-91
2022/10/21 22:37:38;;;;;;;30.72;19.60;;;;;;;11.92;100.00;100102.73;3472027;84;99606;-93
2022/10/21 22:42:39;;;;;;;34.00;20.77;;;;;;;11.95;100.00;100097.82;3464065;84;25956;-92
2022/10/21 22:47:40;;;;;;;32.15;19.87;;;;;;;11.93;100.00;100099.59;3456713;83;99620;-89
2022/10/21 22:52:41;;;;;;;30.73;20.87;;;;;;;11.93;100.00;100110.62;3460864;84;34901;-90
2022/10/21 22:57:42;;;;;;;29.40;20.43;;;;;;;11.92;100.00;100104.91;3410746;84;99506;-91
2022/10/21 23:02:42;;;;;;;31.42;20.65;;;;;;;11.93;100.00;100098.20;3396774;85;35756;-93
2022/10/21 23:07:43;;;;;;;32.37;21.90;;;;;;;11.92;100.00;100095.27;3400020;84;99459;-91
2022/10/21 23:12:44;;;;;;;32.53;23.03;;;;;;;11.94;100.00;100092.12;3402388;85;28182;-93
2022/10/21 23:17:45;;;;;;;34.13;21.90;;;;;;;11.91;100.00;100096.45;3407057;84;99546;-93